sensor_id;sensor_type;location;lat;lon;timestamp;temperature;humidity
580;DHT22;276;48.392;9.950;2023-05-29T00:01:25;16.70;91.10
580;DHT22;276;48.392;9.950;2023-05-29T00:03:51;16.70;91.20
580;DHT22;276;48.392;9.950;2023-05-29T00:06:21;16.60;91.20
580;DHT22;276;48.392;9.950;2023-05-29T00:08:46;16.60;91.30
580;DHT22;276;48.392;9.950;2023-05-29T00:11:13;16.50;91.40
580;DHT22;276;48.392;9.950;2023-05-29T00:13:41;16.50;91.50
580;DHT22;276;48.392;9.950;2023-05-29T00:16:07;16.40;91.40
580;DHT22;276;48.392;9.950;2023-05-29T00:18:35;16.40;91.50
580;DHT22;276;48.392;9.950;2023-05-29T00:21:04;16.40;91.50
580;DHT22;276;48.392;9.950;2023-05-29T00:23:32;16.40;91.60
580;DHT22;276;48.392;9.950;2023-05-29T00:25:57;16.30;91.60
580;DHT22;276;48.392;9.950;2023-05-29T00:28:23;16.30;91.70
580;DHT22;276;48.392;9.950;2023-05-29T00:30:51;16.30;91.60
580;DHT22;276;48.392;9.950;2023-05-29T00:33:16;16.20;91.60
580;DHT22;276;48.392;9.950;2023-05-29T00:35:46;16.20;91.60
580;DHT22;276;48.392;9.950;2023-05-29T00:38:12;16.20;91.70
580;DHT22;276;48.392;9.950;2023-05-29T00:40:39;16.10;91.60
580;DHT22;276;48.392;9.950;2023-05-29T00:43:04;16.10;91.70
580;DHT22;276;48.392;9.950;2023-05-29T00:45:35;16.10;91.80
580;DHT22;276;48.392;9.950;2023-05-29T00:48:04;16.10;91.80
580;DHT22;276;48.392;9.950;2023-05-29T00:50:30;16.10;91.80
580;DHT22;276;48.392;9.950;2023-05-29T00:52:58;16.00;91.90
580;DHT22;276;48.392;9.950;2023-05-29T00:55:25;16.10;91.90
580;DHT22;276;48.392;9.950;2023-05-29T00:57:51;16.10;92.00
580;DHT22;276;48.392;9.950;2023-05-29T01:00:17;16.10;91.90
580;DHT22;276;48.392;9.950;2023-05-29T01:02:44;16.00;91.80
580;DHT22;276;48.392;9.950;2023-05-29T01:05:13;16.00;91.80
580;DHT22;276;48.392;9.950;2023-05-29T01:07:42;16.00;91.80
580;DHT22;276;48.392;9.950;2023-05-29T01:10:11;16.00;91.80
580;DHT22;276;48.392;9.950;2023-05-29T01:12:51;16.00;91.90
580;DHT22;276;48.392;9.950;2023-05-29T01:20:42;16.00;91.80
580;DHT22;276;48.392;9.950;2023-05-29T01:28:48;16.00;92.00
580;DHT22;276;48.392;9.950;2023-05-29T01:31:25;16.00;92.00
580;DHT22;276;48.392;9.950;2023-05-29T01:33:55;16.10;91.90
580;DHT22;276;48.392;9.950;2023-05-29T01:36:21;16.00;91.90
580;DHT22;276;48.392;9.950;2023-05-29T01:38:48;16.00;91.90
580;DHT22;276;48.392;9.950;2023-05-29T01:41:15;16.00;92.00
580;DHT22;276;48.392;9.950;2023-05-29T01:43:43;16.00;92.00
580;DHT22;276;48.392;9.950;2023-05-29T01:46:09;16.00;92.00
580;DHT22;276;48.392;9.950;2023-05-29T01:48:36;16.00;92.10
580;DHT22;276;48.392;9.950;2023-05-29T01:51:04;16.00;92.10
580;DHT22;276;48.392;9.950;2023-05-29T01:53:32;16.00;92.20
580;DHT22;276;48.392;9.950;2023-05-29T01:56:00;16.00;92.10
580;DHT22;276;48.392;9.950;2023-05-29T01:58:27;16.00;92.20
580;DHT22;276;48.392;9.950;2023-05-29T02:00:53;15.90;92.10
580;DHT22;276;48.392;9.950;2023-05-29T02:03:22;15.90;92.10
580;DHT22;276;48.392;9.950;2023-05-29T02:05:49;15.90;92.20
580;DHT22;276;48.392;9.950;2023-05-29T02:08:17;15.90;92.20
580;DHT22;276;48.392;9.950;2023-05-29T02:10:45;15.90;92.20
580;DHT22;276;48.392;9.950;2023-05-29T02:13:10;15.80;92.20
580;DHT22;276;48.392;9.950;2023-05-29T02:15:36;15.80;92.20
580;DHT22;276;48.392;9.950;2023-05-29T02:18:04;15.80;92.30
580;DHT22;276;48.392;9.950;2023-05-29T02:20:30;15.80;92.30
580;DHT22;276;48.392;9.950;2023-05-29T02:22:55;15.70;92.30
580;DHT22;276;48.392;9.950;2023-05-29T02:25:21;15.70;92.40
580;DHT22;276;48.392;9.950;2023-05-29T02:27:48;15.80;92.50
580;DHT22;276;48.392;9.950;2023-05-29T02:30:19;15.80;92.40
580;DHT22;276;48.392;9.950;2023-05-29T02:32:47;15.70;92.40
580;DHT22;276;48.392;9.950;2023-05-29T02:35:12;15.70;92.50
580;DHT22;276;48.392;9.950;2023-05-29T02:37:46;15.70;92.50
580;DHT22;276;48.392;9.950;2023-05-29T02:40:12;15.70;92.50
580;DHT22;276;48.392;9.950;2023-05-29T02:42:39;15.60;92.50
580;DHT22;276;48.392;9.950;2023-05-29T02:45:05;15.60;92.50
580;DHT22;276;48.392;9.950;2023-05-29T02:47:31;15.50;92.60
580;DHT22;276;48.392;9.950;2023-05-29T02:49:57;15.50;92.80
580;DHT22;276;48.392;9.950;2023-05-29T02:52:24;15.50;92.80
580;DHT22;276;48.392;9.950;2023-05-29T02:54:50;15.50;92.80
580;DHT22;276;48.392;9.950;2023-05-29T02:57:16;15.50;92.90
580;DHT22;276;48.392;9.950;2023-05-29T02:59:41;15.50;92.90
580;DHT22;276;48.392;9.950;2023-05-29T03:02:12;15.50;92.90
580;DHT22;276;48.392;9.950;2023-05-29T03:04:42;15.50;92.90
580;DHT22;276;48.392;9.950;2023-05-29T03:07:07;15.40;92.90
580;DHT22;276;48.392;9.950;2023-05-29T03:09:35;15.40;92.90
580;DHT22;276;48.392;9.950;2023-05-29T03:12:00;15.40;93.00
580;DHT22;276;48.392;9.950;2023-05-29T03:14:27;15.30;93.00
580;DHT22;276;48.392;9.950;2023-05-29T03:16:53;15.30;93.10
580;DHT22;276;48.392;9.950;2023-05-29T03:19:19;15.20;93.20
580;DHT22;276;48.392;9.950;2023-05-29T03:21:47;15.20;93.20
580;DHT22;276;48.392;9.950;2023-05-29T03:24:12;15.10;93.20
580;DHT22;276;48.392;9.950;2023-05-29T03:26:43;15.10;93.40
580;DHT22;276;48.392;9.950;2023-05-29T03:29:09;15.10;93.40
580;DHT22;276;48.392;9.950;2023-05-29T03:31:35;15.00;93.40
580;DHT22;276;48.392;9.950;2023-05-29T03:34:00;15.00;93.40
580;DHT22;276;48.392;9.950;2023-05-29T03:36:26;15.00;93.50
580;DHT22;276;48.392;9.950;2023-05-29T03:38:54;15.00;93.50
580;DHT22;276;48.392;9.950;2023-05-29T03:41:20;15.00;93.60
580;DHT22;276;48.392;9.950;2023-05-29T03:43:45;15.00;93.70
580;DHT22;276;48.392;9.950;2023-05-29T03:46:11;15.00;93.70
580;DHT22;276;48.392;9.950;2023-05-29T03:48:37;15.00;93.70
580;DHT22;276;48.392;9.950;2023-05-29T03:51:05;15.00;93.80
580;DHT22;276;48.392;9.950;2023-05-29T03:53:32;15.00;93.80
580;DHT22;276;48.392;9.950;2023-05-29T03:56:03;15.00;93.80
580;DHT22;276;48.392;9.950;2023-05-29T03:58:31;15.00;93.80
580;DHT22;276;48.392;9.950;2023-05-29T04:00:56;15.00;93.80
580;DHT22;276;48.392;9.950;2023-05-29T04:03:22;15.10;93.90
580;DHT22;276;48.392;9.950;2023-05-29T04:05:48;15.10;94.00
580;DHT22;276;48.392;9.950;2023-05-29T04:08:18;15.10;94.00
580;DHT22;276;48.392;9.950;2023-05-29T04:10:46;15.10;94.00
580;DHT22;276;48.392;9.950;2023-05-29T04:13:12;15.10;94.10
580;DHT22;276;48.392;9.950;2023-05-29T04:15:38;15.20;94.20
580;DHT22;276;48.392;9.950;2023-05-29T04:18:08;15.20;94.20
580;DHT22;276;48.392;9.950;2023-05-29T04:20:34;15.30;94.20
580;DHT22;276;48.392;9.950;2023-05-29T04:23:02;15.30;94.20
580;DHT22;276;48.392;9.950;2023-05-29T04:25:28;15.40;94.30
580;DHT22;276;48.392;9.950;2023-05-29T04:27:55;15.40;94.40
580;DHT22;276;48.392;9.950;2023-05-29T04:30:21;15.50;94.40
580;DHT22;276;48.392;9.950;2023-05-29T04:32:51;15.50;94.40
580;DHT22;276;48.392;9.950;2023-05-29T04:35:19;15.60;94.40
580;DHT22;276;48.392;9.950;2023-05-29T04:37:45;15.70;94.50
580;DHT22;276;48.392;9.950;2023-05-29T04:40:11;15.70;94.50
580;DHT22;276;48.392;9.950;2023-05-29T04:42:42;15.70;94.50
580;DHT22;276;48.392;9.950;2023-05-29T04:45:10;15.80;94.50
580;DHT22;276;48.392;9.950;2023-05-29T04:47:39;15.90;94.60
580;DHT22;276;48.392;9.950;2023-05-29T04:50:13;15.90;94.60
580;DHT22;276;48.392;9.950;2023-05-29T04:52:39;16.00;94.50
580;DHT22;276;48.392;9.950;2023-05-29T04:55:05;16.00;94.80
580;DHT22;276;48.392;9.950;2023-05-29T04:57:31;16.10;94.50
580;DHT22;276;48.392;9.950;2023-05-29T04:59:57;16.20;94.50
580;DHT22;276;48.392;9.950;2023-05-29T05:02:23;16.30;94.50
580;DHT22;276;48.392;9.950;2023-05-29T05:04:49;16.40;94.50
580;DHT22;276;48.392;9.950;2023-05-29T05:07:15;16.50;94.50
580;DHT22;276;48.392;9.950;2023-05-29T05:09:42;16.60;94.50
580;DHT22;276;48.392;9.950;2023-05-29T05:12:07;16.60;94.40
580;DHT22;276;48.392;9.950;2023-05-29T05:14:34;16.80;94.40
580;DHT22;276;48.392;9.950;2023-05-29T05:16:59;16.90;94.30
580;DHT22;276;48.392;9.950;2023-05-29T05:19:27;16.90;94.10
580;DHT22;276;48.392;9.950;2023-05-29T05:21:53;17.00;93.90
580;DHT22;276;48.392;9.950;2023-05-29T05:24:18;17.10;93.80
580;DHT22;276;48.392;9.950;2023-05-29T05:26:44;17.20;93.70
580;DHT22;276;48.392;9.950;2023-05-29T05:29:09;17.30;93.60
580;DHT22;276;48.392;9.950;2023-05-29T05:31:37;17.40;93.40
580;DHT22;276;48.392;9.950;2023-05-29T05:34:05;17.50;93.20
580;DHT22;276;48.392;9.950;2023-05-29T05:36:31;17.60;93.00
580;DHT22;276;48.392;9.950;2023-05-29T05:38:58;17.70;92.90
580;DHT22;276;48.392;9.950;2023-05-29T05:41:23;17.80;92.80
580;DHT22;276;48.392;9.950;2023-05-29T05:43:49;17.80;92.70
580;DHT22;276;48.392;9.950;2023-05-29T05:46:18;17.90;92.60
580;DHT22;276;48.392;9.950;2023-05-29T05:48:43;18.00;92.60
580;DHT22;276;48.392;9.950;2023-05-29T05:51:09;18.10;92.50
580;DHT22;276;48.392;9.950;2023-05-29T05:53:37;18.20;92.40
580;DHT22;276;48.392;9.950;2023-05-29T05:56:07;18.30;92.30
580;DHT22;276;48.392;9.950;2023-05-29T05:58:35;18.40;92.20
580;DHT22;276;48.392;9.950;2023-05-29T06:01:03;18.50;92.10
580;DHT22;276;48.392;9.950;2023-05-29T06:03:29;18.50;91.80
580;DHT22;276;48.392;9.950;2023-05-29T06:05:58;18.60;91.50
580;DHT22;276;48.392;9.950;2023-05-29T06:08:26;18.70;91.00
580;DHT22;276;48.392;9.950;2023-05-29T06:10:52;18.80;90.80
580;DHT22;276;48.392;9.950;2023-05-29T06:13:20;18.90;90.60
580;DHT22;276;48.392;9.950;2023-05-29T06:15:48;19.00;90.30
580;DHT22;276;48.392;9.950;2023-05-29T06:18:13;19.10;89.50
580;DHT22;276;48.392;9.950;2023-05-29T06:20:39;19.10;89.50
580;DHT22;276;48.392;9.950;2023-05-29T06:23:05;19.20;88.30
580;DHT22;276;48.392;9.950;2023-05-29T06:25:33;19.10;87.60
580;DHT22;276;48.392;9.950;2023-05-29T06:28:00;19.10;88.00
580;DHT22;276;48.392;9.950;2023-05-29T06:30:26;19.10;88.20
580;DHT22;276;48.392;9.950;2023-05-29T06:32:56;19.20;88.50
580;DHT22;276;48.392;9.950;2023-05-29T06:35:21;19.20;88.30
580;DHT22;276;48.392;9.950;2023-05-29T06:37:52;19.30;88.70
580;DHT22;276;48.392;9.950;2023-05-29T06:40:18;19.40;88.50
580;DHT22;276;48.392;9.950;2023-05-29T06:42:45;19.40;88.00
580;DHT22;276;48.392;9.950;2023-05-29T06:45:16;19.50;88.20
580;DHT22;276;48.392;9.950;2023-05-29T06:47:42;19.50;87.00
580;DHT22;276;48.392;9.950;2023-05-29T06:50:10;19.60;87.20
580;DHT22;276;48.392;9.950;2023-05-29T06:52:38;19.70;87.50
580;DHT22;276;48.392;9.950;2023-05-29T06:55:04;19.70;87.10
580;DHT22;276;48.392;9.950;2023-05-29T06:57:30;19.80;87.10
580;DHT22;276;48.392;9.950;2023-05-29T06:59:55;19.90;87.00
580;DHT22;276;48.392;9.950;2023-05-29T07:02:23;20.00;87.00
580;DHT22;276;48.392;9.950;2023-05-29T07:04:49;20.10;87.20
580;DHT22;276;48.392;9.950;2023-05-29T07:07:17;20.20;87.30
580;DHT22;276;48.392;9.950;2023-05-29T07:09:43;20.30;87.10
580;DHT22;276;48.392;9.950;2023-05-29T07:12:10;20.30;87.10
580;DHT22;276;48.392;9.950;2023-05-29T07:14:38;20.40;86.80
580;DHT22;276;48.392;9.950;2023-05-29T07:17:04;20.50;85.80
580;DHT22;276;48.392;9.950;2023-05-29T07:19:31;20.50;85.70
580;DHT22;276;48.392;9.950;2023-05-29T07:21:58;20.70;86.20
580;DHT22;276;48.392;9.950;2023-05-29T07:24:23;20.80;86.30
580;DHT22;276;48.392;9.950;2023-05-29T07:26:52;20.80;86.20
580;DHT22;276;48.392;9.950;2023-05-29T07:29:17;20.90;86.20
580;DHT22;276;48.392;9.950;2023-05-29T07:31:46;21.00;86.20
580;DHT22;276;48.392;9.950;2023-05-29T07:34:12;21.00;86.10
580;DHT22;276;48.392;9.950;2023-05-29T07:37:02;21.00;86.40
580;DHT22;276;48.392;9.950;2023-05-29T07:39:28;21.10;86.80
580;DHT22;276;48.392;9.950;2023-05-29T07:41:54;21.10;86.70
580;DHT22;276;48.392;9.950;2023-05-29T07:44:19;21.20;86.20
580;DHT22;276;48.392;9.950;2023-05-29T07:46:45;21.20;86.30
580;DHT22;276;48.392;9.950;2023-05-29T07:49:11;21.10;86.10
580;DHT22;276;48.392;9.950;2023-05-29T07:51:36;21.20;86.40
580;DHT22;276;48.392;9.950;2023-05-29T07:54:02;21.20;86.60
580;DHT22;276;48.392;9.950;2023-05-29T07:56:30;21.30;86.90
580;DHT22;276;48.392;9.950;2023-05-29T07:58:56;21.30;86.20
580;DHT22;276;48.392;9.950;2023-05-29T08:01:24;21.40;86.00
580;DHT22;276;48.392;9.950;2023-05-29T08:03:51;21.40;86.60
580;DHT22;276;48.392;9.950;2023-05-29T08:06:20;21.50;86.70
580;DHT22;276;48.392;9.950;2023-05-29T08:08:48;21.60;87.50
580;DHT22;276;48.392;9.950;2023-05-29T08:11:16;21.80;86.70
580;DHT22;276;48.392;9.950;2023-05-29T08:13:42;21.80;84.70
580;DHT22;276;48.392;9.950;2023-05-29T08:16:07;21.80;84.30
580;DHT22;276;48.392;9.950;2023-05-29T08:18:37;21.80;84.60
580;DHT22;276;48.392;9.950;2023-05-29T08:21:05;21.80;84.60
580;DHT22;276;48.392;9.950;2023-05-29T08:23:34;21.70;83.30
580;DHT22;276;48.392;9.950;2023-05-29T08:26:00;21.70;83.50
580;DHT22;276;48.392;9.950;2023-05-29T08:28:28;21.70;84.10
580;DHT22;276;48.392;9.950;2023-05-29T08:30:53;21.70;85.10
580;DHT22;276;48.392;9.950;2023-05-29T08:33:21;21.90;85.40
580;DHT22;276;48.392;9.950;2023-05-29T08:35:47;22.10;85.00
580;DHT22;276;48.392;9.950;2023-05-29T08:38:15;22.10;85.10
580;DHT22;276;48.392;9.950;2023-05-29T08:40:40;22.30;85.90
580;DHT22;276;48.392;9.950;2023-05-29T08:43:17;22.30;85.40
580;DHT22;276;48.392;9.950;2023-05-29T08:45:45;22.40;85.00
580;DHT22;276;48.392;9.950;2023-05-29T08:48:12;22.60;83.90
580;DHT22;276;48.392;9.950;2023-05-29T08:50:44;22.70;83.60
580;DHT22;276;48.392;9.950;2023-05-29T08:53:14;22.90;84.20
580;DHT22;276;48.392;9.950;2023-05-29T08:55:43;23.00;84.00
580;DHT22;276;48.392;9.950;2023-05-29T08:58:09;23.10;83.40
580;DHT22;276;48.392;9.950;2023-05-29T09:00:36;23.10;82.80
580;DHT22;276;48.392;9.950;2023-05-29T09:03:06;23.20;83.20
580;DHT22;276;48.392;9.950;2023-05-29T09:05:32;23.30;81.30
580;DHT22;276;48.392;9.950;2023-05-29T09:07:59;23.40;80.80
580;DHT22;276;48.392;9.950;2023-05-29T09:10:27;23.40;80.50
580;DHT22;276;48.392;9.950;2023-05-29T09:12:53;23.40;78.00
580;DHT22;276;48.392;9.950;2023-05-29T09:15:23;23.40;78.10
580;DHT22;276;48.392;9.950;2023-05-29T09:17:52;23.40;77.90
580;DHT22;276;48.392;9.950;2023-05-29T09:20:18;23.50;78.70
580;DHT22;276;48.392;9.950;2023-05-29T09:23:01;23.60;79.00
580;DHT22;276;48.392;9.950;2023-05-29T09:25:29;23.60;76.90
580;DHT22;276;48.392;9.950;2023-05-29T09:27:59;23.60;75.70
580;DHT22;276;48.392;9.950;2023-05-29T09:30:35;23.70;74.00
580;DHT22;276;48.392;9.950;2023-05-29T09:33:02;23.70;73.40
580;DHT22;276;48.392;9.950;2023-05-29T09:35:45;23.70;73.20
580;DHT22;276;48.392;9.950;2023-05-29T09:38:15;23.70;72.70
580;DHT22;276;48.392;9.950;2023-05-29T09:40:46;23.70;72.20
580;DHT22;276;48.392;9.950;2023-05-29T09:43:14;23.80;71.40
580;DHT22;276;48.392;9.950;2023-05-29T09:45:43;23.80;70.40
580;DHT22;276;48.392;9.950;2023-05-29T09:50:39;23.70;71.40
580;DHT22;276;48.392;9.950;2023-05-29T09:53:25;23.80;72.10
580;DHT22;276;48.392;9.950;2023-05-29T09:55:53;23.80;71.80
580;DHT22;276;48.392;9.950;2023-05-29T09:58:22;23.80;71.60
580;DHT22;276;48.392;9.950;2023-05-29T10:00:49;23.80;72.50
580;DHT22;276;48.392;9.950;2023-05-29T10:03:18;23.90;72.80
580;DHT22;276;48.392;9.950;2023-05-29T10:05:51;23.90;72.50
580;DHT22;276;48.392;9.950;2023-05-29T10:08:19;24.00;72.70
580;DHT22;276;48.392;9.950;2023-05-29T10:11:01;24.00;73.00
580;DHT22;276;48.392;9.950;2023-05-29T10:13:38;24.10;73.60
580;DHT22;276;48.392;9.950;2023-05-29T10:16:08;24.10;73.50
580;DHT22;276;48.392;9.950;2023-05-29T10:18:38;24.10;74.00
580;DHT22;276;48.392;9.950;2023-05-29T10:21:07;24.10;73.30
580;DHT22;276;48.392;9.950;2023-05-29T10:23:35;24.20;73.00
580;DHT22;276;48.392;9.950;2023-05-29T10:26:10;24.20;72.70
580;DHT22;276;48.392;9.950;2023-05-29T10:28:40;24.20;72.80
580;DHT22;276;48.392;9.950;2023-05-29T10:31:14;24.20;72.70
580;DHT22;276;48.392;9.950;2023-05-29T10:36:36;24.20;72.70
580;DHT22;276;48.392;9.950;2023-05-29T10:39:04;24.30;73.50
580;DHT22;276;48.392;9.950;2023-05-29T10:41:30;24.40;74.20
580;DHT22;276;48.392;9.950;2023-05-29T10:44:00;24.50;73.80
580;DHT22;276;48.392;9.950;2023-05-29T10:49:20;24.50;72.40
580;DHT22;276;48.392;9.950;2023-05-29T10:51:46;24.50;72.10
580;DHT22;276;48.392;9.950;2023-05-29T10:54:12;24.50;72.20
580;DHT22;276;48.392;9.950;2023-05-29T10:56:44;24.60;72.90
580;DHT22;276;48.392;9.950;2023-05-29T10:59:17;24.70;72.60
580;DHT22;276;48.392;9.950;2023-05-29T11:01:43;24.70;71.70
580;DHT22;276;48.392;9.950;2023-05-29T11:06:47;24.60;69.00
580;DHT22;276;48.392;9.950;2023-05-29T11:09:38;24.40;67.30
580;DHT22;276;48.392;9.950;2023-05-29T11:15:00;24.30;68.20
580;DHT22;276;48.392;9.950;2023-05-29T11:20:04;24.40;68.00
580;DHT22;276;48.392;9.950;2023-05-29T11:25:14;24.20;64.90
580;DHT22;276;48.392;9.950;2023-05-29T11:27:43;24.20;66.00
580;DHT22;276;48.392;9.950;2023-05-29T11:30:09;24.20;66.10
580;DHT22;276;48.392;9.950;2023-05-29T11:32:37;24.30;66.70
580;DHT22;276;48.392;9.950;2023-05-29T11:35:10;24.40;67.00
580;DHT22;276;48.392;9.950;2023-05-29T11:37:38;24.40;65.80
580;DHT22;276;48.392;9.950;2023-05-29T11:40:06;24.40;63.50
580;DHT22;276;48.392;9.950;2023-05-29T11:42:35;24.30;63.20
580;DHT22;276;48.392;9.950;2023-05-29T11:45:20;24.30;63.60
580;DHT22;276;48.392;9.950;2023-05-29T11:50:22;24.40;62.40
580;DHT22;276;48.392;9.950;2023-05-29T11:52:51;24.40;61.40
580;DHT22;276;48.392;9.950;2023-05-29T11:55:22;24.30;60.60
580;DHT22;276;48.392;9.950;2023-05-29T11:57:49;24.30;59.20
580;DHT22;276;48.392;9.950;2023-05-29T12:00:17;24.30;60.10
580;DHT22;276;48.392;9.950;2023-05-29T12:02:44;24.30;59.20
580;DHT22;276;48.392;9.950;2023-05-29T12:05:13;24.30;59.10
580;DHT22;276;48.392;9.950;2023-05-29T12:07:51;24.30;58.80
580;DHT22;276;48.392;9.950;2023-05-29T12:10:20;24.30;59.00
580;DHT22;276;48.392;9.950;2023-05-29T12:12:53;24.30;60.30
580;DHT22;276;48.392;9.950;2023-05-29T12:15:21;24.30;61.00
580;DHT22;276;48.392;9.950;2023-05-29T12:17:50;24.40;61.60
580;DHT22;276;48.392;9.950;2023-05-29T12:20:17;24.30;58.00
580;DHT22;276;48.392;9.950;2023-05-29T12:22:44;24.30;57.20
580;DHT22;276;48.392;9.950;2023-05-29T12:25:12;24.30;57.80
580;DHT22;276;48.392;9.950;2023-05-29T12:27:38;24.30;59.30
580;DHT22;276;48.392;9.950;2023-05-29T12:32:41;24.30;59.70
580;DHT22;276;48.392;9.950;2023-05-29T12:35:15;24.20;57.00
580;DHT22;276;48.392;9.950;2023-05-29T12:38:04;24.10;57.00
580;DHT22;276;48.392;9.950;2023-05-29T12:40:33;24.10;57.60
580;DHT22;276;48.392;9.950;2023-05-29T12:43:08;24.20;58.40
580;DHT22;276;48.392;9.950;2023-05-29T12:45:36;24.30;58.10
580;DHT22;276;48.392;9.950;2023-05-29T12:48:04;24.20;57.80
580;DHT22;276;48.392;9.950;2023-05-29T12:50:32;24.20;57.80
580;DHT22;276;48.392;9.950;2023-05-29T12:55:30;24.30;58.70
580;DHT22;276;48.392;9.950;2023-05-29T12:57:59;24.30;59.40
580;DHT22;276;48.392;9.950;2023-05-29T13:00:25;24.40;59.10
580;DHT22;276;48.392;9.950;2023-05-29T13:02:53;24.40;58.90
580;DHT22;276;48.392;9.950;2023-05-29T13:05:19;24.40;57.90
580;DHT22;276;48.392;9.950;2023-05-29T13:07:52;24.40;57.60
580;DHT22;276;48.392;9.950;2023-05-29T13:10:18;24.30;57.70
580;DHT22;276;48.392;9.950;2023-05-29T13:12:44;24.30;58.10
580;DHT22;276;48.392;9.950;2023-05-29T13:15:15;24.40;58.50
580;DHT22;276;48.392;9.950;2023-05-29T13:17:41;24.40;58.80
580;DHT22;276;48.392;9.950;2023-05-29T13:20:11;24.40;57.60
580;DHT22;276;48.392;9.950;2023-05-29T13:22:38;24.50;57.90
580;DHT22;276;48.392;9.950;2023-05-29T13:25:04;24.50;57.70
580;DHT22;276;48.392;9.950;2023-05-29T13:27:35;24.40;57.70
580;DHT22;276;48.392;9.950;2023-05-29T13:30:01;24.40;56.70
580;DHT22;276;48.392;9.950;2023-05-29T13:32:29;24.40;57.50
580;DHT22;276;48.392;9.950;2023-05-29T13:34:55;24.40;56.80
580;DHT22;276;48.392;9.950;2023-05-29T13:37:21;24.40;57.10
580;DHT22;276;48.392;9.950;2023-05-29T13:39:51;24.40;57.10
580;DHT22;276;48.392;9.950;2023-05-29T13:42:17;24.40;57.50
580;DHT22;276;48.392;9.950;2023-05-29T13:44:46;24.40;58.20
580;DHT22;276;48.392;9.950;2023-05-29T13:47:19;24.40;57.10
580;DHT22;276;48.392;9.950;2023-05-29T13:49:45;24.30;57.20
580;DHT22;276;48.392;9.950;2023-05-29T13:52:10;24.30;56.70
580;DHT22;276;48.392;9.950;2023-05-29T13:54:36;24.20;57.00
580;DHT22;276;48.392;9.950;2023-05-29T13:57:05;24.20;57.30
580;DHT22;276;48.392;9.950;2023-05-29T13:59:37;24.20;57.00
580;DHT22;276;48.392;9.950;2023-05-29T14:02:03;24.10;57.10
580;DHT22;276;48.392;9.950;2023-05-29T14:04:30;24.10;57.90
580;DHT22;276;48.392;9.950;2023-05-29T14:06:56;24.30;58.80
580;DHT22;276;48.392;9.950;2023-05-29T14:09:22;24.30;58.40
580;DHT22;276;48.392;9.950;2023-05-29T14:11:59;24.30;57.30
580;DHT22;276;48.392;9.950;2023-05-29T14:14:25;24.30;57.20
580;DHT22;276;48.392;9.950;2023-05-29T14:16:53;24.30;57.90
580;DHT22;276;48.392;9.950;2023-05-29T14:19:20;24.30;57.40
580;DHT22;276;48.392;9.950;2023-05-29T14:21:46;24.20;57.10
580;DHT22;276;48.392;9.950;2023-05-29T14:24:12;24.20;57.00
580;DHT22;276;48.392;9.950;2023-05-29T14:26:38;24.10;55.60
580;DHT22;276;48.392;9.950;2023-05-29T14:29:04;24.10;56.40
580;DHT22;276;48.392;9.950;2023-05-29T14:31:30;24.20;57.50
580;DHT22;276;48.392;9.950;2023-05-29T14:33:56;24.20;58.20
580;DHT22;276;48.392;9.950;2023-05-29T14:36:21;24.30;58.60
580;DHT22;276;48.392;9.950;2023-05-29T14:38:47;24.30;58.50
580;DHT22;276;48.392;9.950;2023-05-29T14:41:15;24.40;58.50
580;DHT22;276;48.392;9.950;2023-05-29T14:43:43;24.40;58.20
580;DHT22;276;48.392;9.950;2023-05-29T14:46:09;24.30;58.10
580;DHT22;276;48.392;9.950;2023-05-29T14:48:35;24.30;58.10
580;DHT22;276;48.392;9.950;2023-05-29T14:51:01;24.30;57.00
580;DHT22;276;48.392;9.950;2023-05-29T14:53:27;24.20;57.80
580;DHT22;276;48.392;9.950;2023-05-29T14:55:55;24.30;58.20
580;DHT22;276;48.392;9.950;2023-05-29T14:58:21;24.30;57.50
580;DHT22;276;48.392;9.950;2023-05-29T15:00:47;24.30;57.00
580;DHT22;276;48.392;9.950;2023-05-29T15:03:15;24.30;56.90
580;DHT22;276;48.392;9.950;2023-05-29T15:05:40;24.30;57.30
580;DHT22;276;48.392;9.950;2023-05-29T15:08:06;24.20;56.70
580;DHT22;276;48.392;9.950;2023-05-29T15:10:34;24.20;57.00
580;DHT22;276;48.392;9.950;2023-05-29T15:13:01;24.20;56.80
580;DHT22;276;48.392;9.950;2023-05-29T15:15:32;24.10;57.00
580;DHT22;276;48.392;9.950;2023-05-29T15:17:59;24.10;56.80
580;DHT22;276;48.392;9.950;2023-05-29T15:20:26;24.10;56.90
580;DHT22;276;48.392;9.950;2023-05-29T15:22:52;24.10;56.90
580;DHT22;276;48.392;9.950;2023-05-29T15:25:21;24.10;56.10
580;DHT22;276;48.392;9.950;2023-05-29T15:27:47;24.10;56.40
580;DHT22;276;48.392;9.950;2023-05-29T15:30:13;24.10;56.60
580;DHT22;276;48.392;9.950;2023-05-29T15:32:41;24.10;56.60
580;DHT22;276;48.392;9.950;2023-05-29T15:35:11;24.10;57.50
580;DHT22;276;48.392;9.950;2023-05-29T15:37:42;24.10;57.00
580;DHT22;276;48.392;9.950;2023-05-29T15:40:10;24.10;57.20
580;DHT22;276;48.392;9.950;2023-05-29T15:42:36;24.10;57.60
580;DHT22;276;48.392;9.950;2023-05-29T15:45:05;24.10;57.50
580;DHT22;276;48.392;9.950;2023-05-29T15:47:33;24.10;57.60
580;DHT22;276;48.392;9.950;2023-05-29T15:49:58;24.20;57.40
580;DHT22;276;48.392;9.950;2023-05-29T15:52:29;24.20;57.40
580;DHT22;276;48.392;9.950;2023-05-29T15:54:55;24.20;57.70
580;DHT22;276;48.392;9.950;2023-05-29T15:57:20;24.10;57.10
580;DHT22;276;48.392;9.950;2023-05-29T15:59:48;24.00;56.80
580;DHT22;276;48.392;9.950;2023-05-29T16:02:14;24.00;56.70
580;DHT22;276;48.392;9.950;2023-05-29T16:04:40;24.00;56.60
580;DHT22;276;48.392;9.950;2023-05-29T16:07:05;23.90;56.80
580;DHT22;276;48.392;9.950;2023-05-29T16:09:33;23.90;56.30
580;DHT22;276;48.392;9.950;2023-05-29T16:11:59;23.90;56.40
580;DHT22;276;48.392;9.950;2023-05-29T16:14:25;23.80;56.20
580;DHT22;276;48.392;9.950;2023-05-29T16:16:53;23.80;56.10
580;DHT22;276;48.392;9.950;2023-05-29T16:19:23;23.80;56.10
580;DHT22;276;48.392;9.950;2023-05-29T16:21:51;23.80;56.10
580;DHT22;276;48.392;9.950;2023-05-29T16:24:17;23.80;56.30
580;DHT22;276;48.392;9.950;2023-05-29T16:26:43;23.90;56.70
580;DHT22;276;48.392;9.950;2023-05-29T16:29:08;23.90;56.70
580;DHT22;276;48.392;9.950;2023-05-29T16:31:34;23.90;56.10
580;DHT22;276;48.392;9.950;2023-05-29T16:34:00;23.90;55.40
580;DHT22;276;48.392;9.950;2023-05-29T16:36:26;23.80;54.60
580;DHT22;276;48.392;9.950;2023-05-29T16:38:51;23.80;54.60
580;DHT22;276;48.392;9.950;2023-05-29T16:41:19;23.80;54.90
580;DHT22;276;48.392;9.950;2023-05-29T16:43:44;23.70;54.80
580;DHT22;276;48.392;9.950;2023-05-29T16:46:10;23.70;55.00
580;DHT22;276;48.392;9.950;2023-05-29T16:48:36;23.80;55.50
580;DHT22;276;48.392;9.950;2023-05-29T16:51:06;23.70;55.50
580;DHT22;276;48.392;9.950;2023-05-29T16:53:35;23.70;55.60
580;DHT22;276;48.392;9.950;2023-05-29T16:56:04;23.70;56.50
580;DHT22;276;48.392;9.950;2023-05-29T16:58:34;23.60;55.50
580;DHT22;276;48.392;9.950;2023-05-29T17:01:02;23.70;55.60
580;DHT22;276;48.392;9.950;2023-05-29T17:03:28;23.70;55.90
580;DHT22;276;48.392;9.950;2023-05-29T17:05:54;23.70;56.20
580;DHT22;276;48.392;9.950;2023-05-29T17:08:22;23.80;56.30
580;DHT22;276;48.392;9.950;2023-05-29T17:10:52;23.70;56.00
580;DHT22;276;48.392;9.950;2023-05-29T17:13:18;23.70;55.90
580;DHT22;276;48.392;9.950;2023-05-29T17:15:43;23.70;55.50